Moorestown, NJ

8:46 AM EDT on March 29, 2015 (GMT -0400)
Chester Ave | | Change Station
CLOSE
Current Station
Personal Weather Station
Location: Moorestown, NJ
Elevation: 60 ft
Nearby Weather Stations

Elev 60 ft 39.97 °N, 74.94 °W | Updated 6 seconds ago

Clear
Clear
27.0 °F
Feels Like 27 °F
N
2.0
Wind Variable Wind from North
Gusts 8.0 mph

Today
High -- | Low -- °F
--% Chance of Precip.
Yesterday
High -- | Low -- °F
Precip. -- in
6:49 AM 7:20 PM
Waxing Gibbous, 71% visible
Pressure 30.30 in
Visibility 10.0 miles
Clouds Clear
Windchill 27 °F
Dew Point 8 °F
Humidity 45%
Rainfall 0.00 in
Snow Depth Not available.
UV 1 out of 12
Pollen 8.40 out of 12
Air Quality Not available.
Flu Activity Not available.
METAR KVAY 291154Z AUTO 32007KT 10SM CLR M03/M13 A3030 RMK AO2 SLP259 T10331133 11033 21044 53030

More Conditions Fewer Conditions

Pressure 30.30 in
Visibility 10.0 miles
Clouds Clear
Windchill 27 °F
Dew Point 8 °F
Humidity 45%
Rainfall 0.00 in
Snow Depth Not available.
UV 1 out of 12
Pollen 8.40 out of 12
Air Quality Not available.
Flu Activity Not available.
METAR KVAY 291154Z AUTO 32007KT 10SM CLR M03/M13 A3030 RMK AO2 SLP259 T10331133 11033 21044 53030

More Conditions Fewer Conditions

10-Day Weather Forecast

Almanac

Astronomy

Mar. 29, 2015 Rise Set
Actual Time
Civil Twilight
Nautical Twilight
Astronomical Twilight
Moon
Length of Visible Light
Length of Day
Tomorrow will be .
, % of the Moon is Illuminated

Today's Extremes

State Highs State Lows

Community

WunderPhotos

Upload Photos

1,809,232 photos uploaded!

WunderBlogs® & News

Nearby

Air Quality

  Air Quality AQ Index Pollutant
Not available.

Snow Depth

Station Depth Elevation

Earthquake Activity

City Distance Mag. Time & Date
Minimum magnitude displayed is 2.5.

Coastal Water Temperatures

Place Temperature

Stations

Nearby Weather Stations

Station Location Temp. Windchill Dew Point Humidity Wind Precip. Elev Updated Type